Time;durP1;ratioP1;P1;durP2;ratioP2;P2;SDS_P1;SDS_P2;PMS_P1;PMS_P2;Temp;Humidity;BMP_temperature;BMP_pressure;BME280_temperature;BME280_humidity;BME280_pressure;Samples;Min_cycle;Max_cycle;Signal;HPM_P1;HPM_P2
2021/11/04 00:01:09;;;;;;;;;13.75;10.50;;;;;7.04;73.11;99499.63;5035618;28;46167;-79
2021/11/04 00:03:34;;;;;;;;;10.00;10.00;;;;;7.03;72.53;99500.56;5035010;28;45314;-79
2021/11/04 00:05:59;;;;;;;;;10.00;9.00;;;;;6.99;72.86;99489.31;5035361;28;45209;-78
2021/11/04 00:08:25;;;;;;;;;11.25;9.50;;;;;7.01;72.96;99497.16;5035484;28;45163;-78
2021/11/04 00:10:50;;;;;;;;;9.50;9.50;;;;;7.02;73.25;99493.56;5035539;28;46074;-79
2021/11/04 00:13:16;;;;;;;;;10.50;8.75;;;;;7.00;73.01;99495.47;5034862;28;45203;-78
2021/11/04 00:15:41;;;;;;;;;10.00;10.00;;;;;6.96;72.96;99486.84;5035409;28;45184;-78
2021/11/04 00:18:06;;;;;;;;;10.50;9.25;;;;;6.97;72.73;99495.63;5035370;28;45227;-78
2021/11/04 00:20:32;;;;;;;;;14.00;9.00;;;;;6.93;72.90;99488.81;5035355;28;46298;-79
2021/11/04 00:22:57;;;;;;;;;12.00;9.25;;;;;6.94;73.00;99493.16;5035002;28;45197;-78
2021/11/04 00:25:23;;;;;;;;;14.75;10.00;;;;;6.95;73.30;99498.34;5036549;28;45247;-79
2021/11/04 00:27:49;;;;;;;;;14.50;10.25;;;;;6.94;73.09;99496.69;5039010;28;45195;-79
2021/11/04 00:30:16;;;;;;;;;12.25;11.00;;;;;6.93;72.99;99500.25;5038895;28;45375;-78
2021/11/04 00:32:50;;;;;;;;;11.25;10.50;;;;;6.90;73.58;99489.84;5038408;28;45233;-79
2021/11/04 00:35:16;;;;;;;;;13.00;11.00;;;;;6.94;73.36;99499.31;5038724;28;45309;-79
2021/11/04 00:37:43;;;;;;;;;11.25;11.25;;;;;6.98;73.10;99499.97;5038840;28;45246;-79
2021/11/04 00:40:10;;;;;;;;;12.00;11.25;;;;;6.93;73.21;99494.97;5038570;28;46345;-79
2021/11/04 00:42:36;;;;;;;;;14.75;13.25;;;;;7.00;72.96;99498.97;5038139;28;45771;-79
2021/11/04 00:45:01;;;;;;;;;17.00;14.75;;;;;7.02;73.08;99504.16;5038541;28;45133;-79
2021/11/04 00:47:26;;;;;;;;;15.00;13.50;;;;;7.02;73.56;99493.56;5038397;28;45186;-79
2021/11/04 00:49:52;;;;;;;;;15.00;15.00;;;;;7.02;73.09;99496.22;5020478;28;46136;-79
2021/11/04 00:52:17;;;;;;;;;17.00;14.67;;;;;6.96;73.11;99494.78;5038333;28;45465;-79
2021/11/04 00:54:42;;;;;;;;;17.75;15.75;;;;;7.00;72.71;99495.47;5020240;28;45292;-79
2021/11/04 00:57:08;;;;;;;;;15.00;15.00;;;;;6.99;72.88;99496.41;5038438;28;45217;-79
2021/11/04 00:59:33;;;;;;;;;18.00;16.50;;;;;7.00;72.85;99501.59;5038214;28;45270;-78
2021/11/04 01:01:58;;;;;;;;;20.00;16.00;;;;;6.97;73.05;99500.91;5036535;28;45207;-79
2021/11/04 01:04:24;;;;;;;;;13.67;13.33;;;;;6.97;72.77;99501.78;5038098;28;45186;-79
2021/11/04 01:06:49;;;;;;;;;15.50;15.00;;;;;6.91;72.49;99496.81;5037874;28;45238;-79
2021/11/04 01:09:15;;;;;;;;;18.75;16.50;;;;;6.87;72.77;99498.81;5038102;28;45447;-78
2021/11/04 01:11:40;;;;;;;;;18.50;15.00;;;;;6.81;72.76;99491.25;5038054;28;45239;-79
2021/11/04 01:14:05;;;;;;;;;14.50;12.00;;;;;6.83;72.85;99501.72;5038026;28;45301;-79
2021/11/04 01:16:31;;;;;;;;;17.75;14.00;;;;;6.79;73.41;99502.81;5038167;28;45398;-78
2021/11/04 01:18:56;;;;;;;;;14.25;13.00;;;;;6.72;73.19;99492.59;5037678;28;46782;-79
2021/11/04 01:21:22;;;;;;;;;15.75;13.50;;;;;6.70;73.20;99499.75;5038165;28;45247;-79
2021/11/04 01:23:47;;;;;;;;;15.00;14.00;;;;;6.66;73.35;99492.09;5036102;28;45220;-79
2021/11/04 01:26:12;;;;;;;;;13.00;12.00;;;;;6.64;73.67;99475.47;5037819;28;45241;-79
2021/11/04 01:28:39;;;;;;;;;15.50;12.25;;;;;6.67;73.74;99484.09;5037573;28;46031;-79
2021/11/04 01:31:05;;;;;;;;;15.25;10.75;;;;;6.67;73.25;99484.09;5037864;28;45731;-79
2021/11/04 01:33:30;;;;;;;;;16.75;12.75;;;;;6.66;73.42;99485.00;5037282;28;45131;-79
2021/11/04 01:35:56;;;;;;;;;15.00;11.75;;;;;6.67;73.56;99491.13;5037880;28;45216;-79
2021/11/04 01:38:23;;;;;;;;;12.25;11.00;;;;;6.68;73.65;99491.09;5036505;28;45258;-79
2021/11/04 01:40:50;;;;;;;;;15.00;10.00;;;;;6.67;73.06;99494.66;5037529;28;45742;-79
2021/11/04 01:43:15;;;;;;;;;11.00;10.00;;;;;6.59;73.24;99481.00;5037670;28;45251;-78
2021/11/04 01:45:41;;;;;;;;;13.00;11.75;;;;;6.65;73.04;99515.00;5037673;28;45267;-79
2021/11/04 01:48:06;;;;;;;;;14.25;12.25;;;;;6.63;72.88;99516.06;5037256;28;45220;-79
2021/11/04 01:50:33;;;;;;;;;17.25;11.50;;;;;6.63;72.99;99518.69;5037450;28;45295;-79
2021/11/04 01:52:59;;;;;;;;;16.25;14.75;;;;;6.61;73.20;99524.03;5037089;28;45374;-78
2021/11/04 01:55:27;;;;;;;;;18.00;13.00;;;;;6.58;73.07;99526.84;5037077;28;45328;-79
2021/11/04 01:57:53;;;;;;;;;17.50;15.75;;;;;6.53;72.88;99532.38;5037087;28;46115;-79
2021/11/04 02:00:22;;;;;;;;;15.25;12.00;;;;;6.50;72.94;99523.75;5037316;28;45168;-79
2021/11/04 02:03:01;;;;;;;;;17.00;14.00;;;;;6.46;73.15;99520.47;5037190;28;45187;-79
2021/11/04 02:05:50;;;;;;;;;22.75;17.75;;;;;6.45;73.04;99517.91;5036853;28;45262;-78
2021/11/04 02:08:22;;;;;;;;;18.75;15.25;;;;;6.40;73.61;99515.53;5027195;28;46238;-78
2021/11/04 02:10:56;;;;;;;;;18.50;14.25;;;;;6.39;73.06;99522.56;5037205;28;45778;-79
2021/11/04 02:13:37;;;;;;;;;20.25;15.50;;;;;6.37;73.42;99518.31;5036710;28;45129;-79
2021/11/04 02:16:04;;;;;;;;;19.75;16.00;;;;;6.31;73.65;99502.81;5037153;28;45295;-78
2021/11/04 02:18:33;;;;;;;;;17.50;15.50;;;;;6.32;73.69;99505.38;5036699;28;45266;-79
2021/11/04 02:21:23;;;;;;;;;18.75;16.75;;;;;6.31;73.50;99502.81;5037110;28;45284;-79
2021/11/04 02:24:00;;;;;;;;;22.75;19.00;;;;;6.24;73.73;99496.16;5036553;28;45270;-79
2021/11/04 02:26:26;;;;;;;;;17.75;17.75;;;;;6.21;73.64;99503.31;5036899;28;45196;-79
2021/11/04 02:28:53;;;;;;;;;18.25;16.50;;;;;6.20;73.74;99501.63;5036515;28;45380;-78
2021/11/04 02:31:21;;;;;;;;;20.50;18.00;;;;;6.19;74.06;99502.53;5037123;28;45321;-79
2021/11/04 02:33:47;;;;;;;;;20.50;18.25;;;;;6.13;73.71;99500.25;5036435;28;45235;-79
2021/11/04 02:36:13;;;;;;;;;16.75;15.75;;;;;6.14;73.96;99503.72;5036381;28;45210;-79
2021/11/04 02:38:39;;;;;;;;;18.75;17.75;;;;;6.15;73.98;99505.44;5036069;28;46169;-79
2021/11/04 02:41:06;;;;;;;;;19.00;16.25;;;;;6.17;73.60;99508.84;5036480;28;45251;-79
2021/11/04 02:43:34;;;;;;;;;20.50;17.00;;;;;6.16;73.86;99504.50;5036030;28;45259;-79
2021/11/04 02:46:01;;;;;;;;;18.75;16.00;;;;;6.16;74.11;99512.44;5036642;28;45265;-78
2021/11/04 02:48:30;;;;;;;;;18.00;16.50;;;;;6.13;73.56;99502.88;5036459;28;45202;-78
2021/11/04 02:50:56;;;;;;;;;22.00;16.25;;;;;6.14;73.87;99506.38;5036542;28;45215;-78
2021/11/04 02:53:23;;;;;;;;;21.50;17.00;;;;;6.17;73.86;99512.34;5036225;28;45258;-78
2021/11/04 02:55:50;;;;;;;;;16.00;14.25;;;;;6.16;73.59;99520.34;5036050;28;45254;-78
2021/11/04 02:58:16;;;;;;;;;18.25;15.50;;;;;6.21;73.84;99537.63;5035969;28;45961;-78
2021/11/04 03:00:46;;;;;;;;;15.50;14.00;;;;;6.21;74.03;99526.22;5035932;28;45254;-78
2021/11/04 03:03:12;;;;;;;;;15.75;14.25;;;;;6.21;74.01;99531.50;5035863;28;45225;-78
2021/11/04 03:05:37;;;;;;;;;16.50;13.50;;;;;6.22;73.67;99535.84;5035620;28;45203;-78
2021/11/04 03:08:03;;;;;;;;;22.25;13.25;;;;;6.22;74.13;99535.84;5035928;28;46143;-78
2021/11/04 03:10:29;;;;;;;;;18.50;15.00;;;;;6.26;74.49;99542.66;5036348;28;45211;-78
2021/11/04 03:12:54;;;;;;;;;19.25;16.50;;;;;6.30;74.29;99543.34;5036063;28;45277;-78
2021/11/04 03:15:22;;;;;;;;;18.00;14.75;;;;;6.32;74.14;99533.56;5036293;28;45252;-78
2021/11/04 03:17:50;;;;;;;;;15.50;15.50;;;;;6.37;74.19;99545.59;5035748;28;45506;-78
2021/11/04 03:20:17;;;;;;;;;15.75;15.75;;;;;6.42;74.76;99547.13;5035913;28;45198;-78
2021/11/04 03:22:45;;;;;;;;;15.75;12.75;;;;;6.45;74.79;99541.66;5036195;28;45301;-78
2021/11/04 03:25:14;;;;;;;;;19.50;18.00;;;;;6.46;75.10;99538.94;5036101;28;45284;-78
2021/11/04 03:27:40;;;;;;;;;15.50;15.00;;;;;6.47;75.14;99538.03;5035772;28;46028;-78
2021/11/04 03:30:08;;;;;;;;;16.25;13.75;;;;;6.51;75.40;99538.69;5036090;28;45727;-78
2021/11/04 03:32:36;;;;;;;;;18.25;13.50;;;;;6.53;75.04;99536.81;5035903;28;45199;-78
2021/11/04 03:35:01;;;;;;;;;15.00;14.00;;;;;6.55;75.38;99540.22;5035864;28;45222;-78
2021/11/04 03:37:27;;;;;;;;;16.50;14.75;;;;;6.59;75.57;99530.34;5035726;28;45802;-78
2021/11/04 03:39:54;;;;;;;;;17.00;13.50;;;;;6.62;75.99;99538.94;5035879;28;45283;-78
2021/11/04 03:42:22;;;;;;;;;10.50;10.50;;;;;6.66;75.86;99539.66;5035827;28;45195;-78
2021/11/04 03:44:48;;;;;;;;;14.50;13.25;;;;;6.70;76.08;99546.47;5035530;28;45141;-78
2021/11/04 03:47:16;;;;;;;;;15.00;13.25;;;;;6.72;75.92;99549.88;5035436;28;45386;-78
2021/11/04 03:49:42;;;;;;;;;12.25;11.25;;;;;6.74;76.32;99551.50;5035925;28;45804;-78
2021/11/04 03:52:08;;;;;;;;;13.75;12.00;;;;;6.75;76.05;99547.03;5017941;28;45257;-78
2021/11/04 03:54:34;;;;;;;;;17.50;16.00;;;;;6.79;75.98;99553.03;5035771;28;45245;-78
2021/11/04 03:57:00;;;;;;;;;12.25;11.25;;;;;6.81;75.79;99543.22;5035149;28;45935;-79
2021/11/04 03:59:26;;;;;;;;;16.00;13.25;;;;;6.85;76.06;99550.88;5035889;28;45227;-78
2021/11/04 04:01:52;;;;;;;;;20.75;15.00;;;;;6.83;75.96;99547.47;5038995;28;45369;-78
2021/11/04 04:04:18;;;;;;;;;15.50;12.75;;;;;6.87;76.02;99558.75;5038922;28;45201;-78
2021/11/04 04:06:50;;;;;;;;;9.25;9.00;;;;;6.89;75.89;99552.41;5020891;28;45986;-78
2021/11/04 04:09:16;;;;;;;;;12.25;12.25;;;;;6.90;75.78;99562.03;5038755;28;45240;-78
2021/11/04 04:11:42;;;;;;;;;18.50;15.25;;;;;6.88;75.92;99552.50;5038984;28;45215;-78
2021/11/04 04:14:08;;;;;;;;;16.50;13.25;;;;;6.94;75.80;99567.16;5038937;28;45231;-78
2021/11/04 04:16:33;;;;;;;;;14.00;12.00;;;;;6.94;76.08;99570.66;5039256;28;45667;-78
2021/11/04 04:18:58;;;;;;;;;15.50;12.50;;;;;6.94;76.01;99567.16;5038488;28;45247;-78
2021/11/04 04:21:24;;;;;;;;;11.50;11.00;;;;;6.92;75.79;99559.31;5039109;28;45245;-78
2021/11/04 04:23:49;;;;;;;;;17.50;12.25;;;;;6.91;76.12;99569.03;5038612;28;45372;-78
2021/11/04 04:26:14;;;;;;;;;19.33;18.33;;;;;6.93;75.86;99573.38;5038569;28;46156;-78
2021/11/04 04:28:40;;;;;;;;;17.75;13.00;;;;;6.95;75.70;99569.72;5038479;28;45269;-78
2021/11/04 04:31:05;;;;;;;;;20.50;17.75;;;;;6.94;76.04;99567.16;5038968;28;45230;-78
2021/11/04 04:33:30;;;;;;;;;21.50;14.25;;;;;6.95;75.84;99571.50;5038372;28;45284;-78
2021/11/04 04:35:56;;;;;;;;;17.50;15.00;;;;;6.94;76.11;99581.25;5038348;28;46373;-78
2021/11/04 04:38:22;;;;;;;;;14.25;12.00;;;;;6.95;75.80;99590.00;5038384;28;45194;-78
2021/11/04 04:40:49;;;;;;;;;13.50;12.25;;;;;6.96;76.51;99594.38;5039039;28;45154;-79
2021/11/04 04:43:14;;;;;;;;;19.00;17.75;;;;;6.97;76.27;99602.22;5038609;28;45222;-78
2021/11/04 04:45:39;;;;;;;;;17.25;12.25;;;;;6.98;76.21;99598.59;5038439;28;45866;-78
2021/11/04 04:48:05;;;;;;;;;19.33;17.33;;;;;6.97;77.05;99599.56;5038299;28;45179;-78
2021/11/04 04:50:30;;;;;;;;;18.00;15.25;;;;;6.96;77.01;99589.09;5038941;28;45207;-78
2021/11/04 04:52:56;;;;;;;;;13.75;13.75;;;;;6.98;76.94;99598.59;5038249;28;45452;-78
2021/11/04 04:55:21;;;;;;;;;17.33;13.00;;;;;6.99;77.03;99592.38;5038371;28;45348;-78
2021/11/04 04:57:46;;;;;;;;;13.00;12.25;;;;;6.98;77.10;99595.97;5038059;28;45351;-78
2021/11/04 05:00:14;;;;;;;;;14.00;13.75;;;;;6.99;76.89;99589.75;5038552;28;45513;-78
2021/11/04 05:02:42;;;;;;;;;14.25;13.75;;;;;7.03;77.12;99595.72;5020366;28;45270;-78
2021/11/04 05:05:08;;;;;;;;;13.00;11.50;;;;;7.03;77.24;99598.38;5036343;28;46407;-78
2021/11/04 05:07:34;;;;;;;;;15.25;12.25;;;;;7.04;77.64;99605.34;5038115;28;45249;-78
2021/11/04 05:10:01;;;;;;;;;12.75;11.75;;;;;7.03;77.63;99603.66;5038518;28;45378;-78
2021/11/04 05:12:26;;;;;;;;;11.00;10.50;;;;;7.07;77.64;99608.69;5036601;28;45297;-78
2021/11/04 05:14:52;;;;;;;;;11.50;11.25;;;;;7.08;77.33;99612.16;5037860;28;45443;-78
2021/11/04 05:17:17;;;;;;;;;15.25;10.00;;;;;7.11;77.49;99611.16;5037708;28;45327;-78
2021/11/04 05:19:42;;;;;;;;;10.33;9.33;;;;;7.14;77.90;99621.53;5038127;28;45452;-78
2021/11/04 05:22:08;;;;;;;;;10.75;10.75;;;;;7.16;77.90;99617.03;5038035;28;45355;-78
2021/11/04 05:24:36;;;;;;;;;12.50;9.75;;;;;7.17;77.61;99616.06;5037487;28;46322;-78
2021/11/04 05:27:05;;;;;;;;;9.50;9.50;;;;;7.20;77.59;99621.22;5037460;28;45265;-78
2021/11/04 05:29:31;;;;;;;;;11.25;9.00;;;;;7.18;77.80;99610.72;5038045;28;45243;-78
2021/11/04 05:31:58;;;;;;;;;10.75;9.75;;;;;7.23;77.89;99613.09;5037569;28;45227;-78
2021/11/04 05:34:24;;;;;;;;;11.50;10.00;;;;;7.21;78.04;99612.31;5037499;28;45287;-78
2021/11/04 05:36:49;;;;;;;;;13.00;11.75;;;;;7.28;77.96;99624.25;5037432;28;45348;-78
2021/11/04 05:39:14;;;;;;;;;11.00;10.50;;;;;7.28;78.16;99618.13;5037848;28;45147;-78
2021/11/04 05:41:40;;;;;;;;;7.75;7.75;;;;;7.33;77.76;99624.03;5037580;28;45194;-78
2021/11/04 05:44:05;;;;;;;;;9.00;9.00;;;;;7.34;77.63;99626.56;5037543;28;45457;-78
2021/11/04 05:46:30;;;;;;;;;9.00;7.50;;;;;7.36;77.70;99629.13;5037211;28;45317;-78
2021/11/04 05:48:56;;;;;;;;;8.50;7.75;;;;;7.35;78.13;99624.78;5037171;28;45275;-78
2021/11/04 05:51:21;;;;;;;;;12.33;10.00;;;;;7.38;77.98;99632.53;5037584;28;45262;-78
2021/11/04 05:53:46;;;;;;;;;9.75;9.75;;;;;7.40;77.77;99635.94;5036869;28;46107;-78
2021/11/04 05:56:11;;;;;;;;;7.75;6.00;;;;;7.42;78.14;99640.22;5019066;28;45228;-78
2021/11/04 05:58:37;;;;;;;;;8.50;7.00;;;;;7.42;77.75;99634.94;5037440;28;45196;-78
2021/11/04 06:01:03;;;;;;;;;7.25;5.00;;;;;7.46;77.77;99647.97;5037566;28;45274;-78
2021/11/04 06:03:28;;;;;;;;;5.00;5.00;;;;;7.49;77.96;99642.50;5036749;28;45969;-78
2021/11/04 06:05:54;;;;;;;;;6.50;6.50;;;;;7.43;77.81;99639.25;5036721;28;45152;-78
2021/11/04 06:08:19;;;;;;;;;6.50;5.00;;;;;7.55;78.19;99650.09;5037176;28;45197;-78
2021/11/04 06:10:44;;;;;;;;;6.75;6.00;;;;;7.51;77.57;99637.97;5037536;28;45133;-78
2021/11/04 06:13:10;;;;;;;;;5.75;5.25;;;;;7.60;78.04;99650.69;5036443;28;45471;-78
2021/11/04 06:15:35;;;;;;;;;5.75;5.75;;;;;7.62;78.29;99653.22;5036906;28;45278;-78
2021/11/04 06:18:00;;;;;;;;;5.00;4.50;;;;;7.66;78.35;99652.13;5036115;28;45214;-78
2021/11/04 06:20:26;;;;;;;;;4.75;4.50;;;;;7.72;77.92;99654.41;5036457;28;45271;-78
2021/11/04 06:22:51;;;;;;;;;4.75;4.50;;;;;7.76;78.28;99656.78;5035814;28;45232;-78
2021/11/04 06:25:17;;;;;;;;;8.25;6.00;;;;;7.84;77.80;99658.13;5036816;28;45178;-78
2021/11/04 06:27:42;;;;;;;;;9.50;4.25;;;;;7.87;78.13;99655.31;5036604;28;45217;-78
2021/11/04 06:30:10;;;;;;;;;5.00;5.00;;;;;7.90;77.52;99655.13;5035064;28;45304;-78
2021/11/04 06:32:35;;;;;;;;;9.00;6.00;;;;;7.99;77.90;99661.69;5036205;28;45203;-78
2021/11/04 06:35:07;;;;;;;;;5.00;5.00;;;;;7.99;77.46;99656.38;5036342;28;45217;-78
2021/11/04 06:37:32;;;;;;;;;5.00;5.00;;;;;8.04;77.34;99668.41;5034952;28;45370;-79
2021/11/04 06:39:58;;;;;;;;;6.25;5.50;;;;;8.10;77.69;99659.25;5036450;28;45207;-78
2021/11/04 06:42:23;;;;;;;;;8.50;6.50;;;;;8.13;77.49;99672.31;5036198;28;46353;-78
2021/11/04 06:44:49;;;;;;;;;6.75;5.75;;;;;8.15;77.54;99664.25;5036078;28;45179;-78
2021/11/04 06:47:29;;;;;;;;;7.75;6.00;;;;;8.17;77.04;99676.47;5034922;28;45263;-78
2021/11/04 06:49:58;;;;;;;;;7.25;6.25;;;;;8.15;77.10;99670.41;5036858;28;45270;-78
2021/11/04 06:52:30;;;;;;;;;8.25;5.25;;;;;8.12;77.39;99681.19;5036329;28;45603;-77
2021/11/04 06:54:59;;;;;;;;;5.50;4.00;;;;;8.16;77.43;99671.28;5036195;28;45824;-77
2021/11/04 06:57:26;;;;;;;;;5.25;5.25;;;;;8.20;77.78;99680.75;5036362;28;45210;-78
2021/11/04 06:59:57;;;;;;;;;9.00;7.00;;;;;8.23;77.58;99681.41;5036210;28;45222;-78
2021/11/04 07:02:35;;;;;;;;;10.50;7.00;;;;;8.25;77.40;99682.19;5035895;28;45392;-78
2021/11/04 07:05:02;;;;;;;;;5.75;5.75;;;;;8.26;77.11;99691.81;5035323;28;45274;-78
2021/11/04 07:07:28;;;;;;;;;6.75;6.00;;;;;8.27;77.07;99693.50;5035672;28;45330;-77
2021/11/04 07:09:53;;;;;;;;;8.25;8.25;;;;;8.28;77.28;99699.69;5035825;28;45203;-78
2021/11/04 07:12:19;;;;;;;;;6.50;6.25;;;;;8.29;77.00;99704.88;5036235;28;45227;-78
2021/11/04 07:14:44;;;;;;;;;6.00;6.00;;;;;8.32;77.09;99714.41;5036268;28;45267;-78
2021/11/04 07:17:12;;;;;;;;;11.00;4.50;;;;;8.34;77.17;99712.56;5036161;28;45293;-78
2021/11/04 07:19:38;;;;;;;;;4.75;3.75;;;;;8.33;76.73;99715.28;5036252;28;45284;-78
2021/11/04 07:22:34;;;;;;;;;6.00;5.25;;;;;8.34;77.25;99717.84;5036129;28;45266;-78
2021/11/04 07:25:07;;;;;;;;;5.00;5.00;;;;;8.32;76.81;99724.16;5036273;28;45793;-78
2021/11/04 07:27:58;;;;;;;;;6.25;4.75;;;;;8.30;76.82;99721.63;5034532;28;45269;-78
2021/11/04 07:30:25;;;;;;;;;6.75;5.00;;;;;8.28;76.84;99734.94;5036650;28;45100;-78
2021/11/04 07:32:53;;;;;;;;;5.50;5.25;;;;;8.24;77.35;99727.28;5035765;28;46394;-78
2021/11/04 07:35:22;;;;;;;;;6.00;5.00;;;;;8.29;76.91;99741.09;5037259;28;45211;-78
2021/11/04 07:37:48;;;;;;;;;4.00;4.00;;;;;8.27;76.91;99741.19;5039624;28;45242;-78
2021/11/04 07:40:16;;;;;;;;;6.50;4.25;;;;;8.29;77.05;99746.38;5038368;28;45322;-77
2021/11/04 07:42:42;;;;;;;;;3.75;3.75;;;;;8.29;77.23;99741.09;5039218;28;46260;-78
2021/11/04 07:45:09;;;;;;;;;4.00;3.25;;;;;8.29;77.33;99743.75;5039318;28;45227;-78
2021/11/04 07:47:43;;;;;;;;;6.25;5.00;;;;;8.26;76.91;99742.13;5039734;28;45234;-78
2021/11/04 07:50:11;;;;;;;;;6.00;6.00;;;;;8.34;76.74;99754.06;5039775;28;45313;-78
2021/11/04 07:52:39;;;;;;;;;5.50;4.75;;;;;8.38;77.00;99766.19;5039141;28;46081;-77
2021/11/04 07:55:05;;;;;;;;;6.00;4.25;;;;;8.39;77.02;99771.38;5039126;28;45607;-77
2021/11/04 07:57:32;;;;;;;;;4.25;3.25;;;;;8.39;76.97;99767.91;5039148;28;45208;-77
2021/11/04 08:00:02;;;;;;;;;7.00;3.50;;;;;8.45;76.51;99763.13;5039597;28;45308;-78
2021/11/04 08:02:27;;;;;;;;;4.00;4.00;;;;;8.44;76.68;99772.00;5039060;28;45297;-78
2021/11/04 08:04:52;;;;;;;;;5.00;2.00;;;;;8.47;76.48;99778.94;5039265;28;45245;-78
2021/11/04 08:07:17;;;;;;;;;2.67;2.67;;;;;8.49;76.45;99792.09;5037669;28;45184;-78
2021/11/04 08:09:43;;;;;;;;;3.00;3.00;;;;;8.56;76.74;99804.88;5039476;28;45256;-78
2021/11/04 08:12:08;;;;;;;;;3.50;3.50;;;;;8.64;76.71;99801.78;5038921;28;46964;-78
2021/11/04 08:14:34;;;;;;;;;4.50;4.00;;;;;8.68;76.34;99797.13;5039415;28;45443;-78
2021/11/04 08:16:59;;;;;;;;;3.50;3.25;;;;;8.71;76.42;99795.16;5039319;28;45211;-78
2021/11/04 08:19:24;;;;;;;;;3.00;1.50;;;;;8.79;76.10;99806.19;5039473;28;45151;-78
2021/11/04 08:21:50;;;;;;;;;3.50;2.00;;;;;8.89;75.96;99809.13;5039193;28;45209;-78
2021/11/04 08:24:15;;;;;;;;;2.50;2.50;;;;;8.98;76.10;99816.50;5039154;28;45221;-78
2021/11/04 08:26:40;;;;;;;;;2.00;2.00;;;;;9.07;75.81;99812.44;5039172;28;45118;-79
2021/11/04 08:29:06;;;;;;;;;4.25;2.25;;;;;9.20;76.07;99809.88;5039169;28;45483;-78
2021/11/04 08:31:32;;;;;;;;;4.25;3.25;;;;;9.30;75.74;99811.03;5038570;28;46387;-80
2021/11/04 08:33:57;;;;;;;;;3.75;2.50;;;;;9.39;75.15;99814.94;5038564;28;45512;-78
2021/11/04 08:36:23;;;;;;;;;3.50;2.00;;;;;9.41;74.98;99809.53;5038564;28;45186;-78
2021/11/04 08:38:48;;;;;;;;;2.00;2.00;;;;;9.57;74.52;99820.88;5038629;28;45202;-78
2021/11/04 08:41:14;;;;;;;;;4.00;2.00;;;;;9.66;74.51;99827.38;5038734;28;45251;-79
2021/11/04 08:43:39;;;;;;;;;2.00;2.00;;;;;9.67;73.83;99824.63;5038232;28;45489;-79
2021/11/04 08:46:05;;;;;;;;;3.75;2.00;;;;;9.73;74.30;99823.41;5038365;28;45279;-79
2021/11/04 08:48:30;;;;;;;;;3.75;2.50;;;;;9.78;73.78;99828.44;5038402;28;45211;-79
2021/11/04 08:50:56;;;;;;;;;4.00;2.25;;;;;9.82;73.47;99830.78;5038409;28;46242;-79
2021/11/04 08:53:21;;;;;;;;;3.25;3.00;;;;;9.86;73.95;99828.78;5038303;28;45377;-79
2021/11/04 08:55:47;;;;;;;;;3.50;2.00;;;;;9.93;73.16;99839.88;5038306;28;45537;-79
2021/11/04 08:58:12;;;;;;;;;3.25;2.75;;;;;9.94;73.35;99845.06;5038288;28;45316;-79
2021/11/04 09:00:38;;;;;;;;;2.25;2.25;;;;;9.97;72.54;99841.38;5038135;28;46279;-79
2021/11/04 09:03:03;;;;;;;;;5.00;1.00;;;;;9.98;72.57;99848.41;5038151;28;45181;-79
2021/11/04 09:05:29;;;;;;;;;2.00;2.00;;;;;10.00;72.13;99847.38;5037890;28;45175;-80
2021/11/04 09:07:54;;;;;;;;;4.00;2.00;;;;;10.04;72.12;99855.13;5038143;28;45148;-79
2021/11/04 09:10:21;;;;;;;;;1.75;1.75;;;;;10.09;72.10;99853.88;5038005;28;45280;-79
2021/11/04 09:12:47;;;;;;;;;1.00;1.00;;;;;10.12;72.13;99860.81;5037889;28;45514;-79
2021/11/04 09:15:13;;;;;;;;;1.75;1.00;;;;;10.18;71.81;99871.88;5038088;28;45243;-79
2021/11/04 09:17:40;;;;;;;;;3.00;1.00;;;;;10.19;71.35;99875.41;5037994;28;45263;-79
2021/11/04 09:20:08;;;;;;;;;2.50;2.00;;;;;10.17;71.85;99878.13;5038076;28;46010;-79
2021/11/04 09:22:34;;;;;;;;;3.00;2.00;;;;;10.21;71.44;99880.59;5037903;28;45243;-79
2021/11/04 09:24:59;;;;;;;;;2.75;2.00;;;;;10.19;71.75;99881.53;5037970;28;45182;-79
2021/11/04 09:27:25;;;;;;;;;1.25;1.25;;;;;10.18;71.52;99881.66;5037666;28;45214;-79
2021/11/04 09:29:50;;;;;;;;;2.75;2.75;;;;;10.17;72.08;99890.56;5037538;28;45282;-79
2021/11/04 09:32:17;;;;;;;;;3.75;3.75;;;;;10.20;71.17;99887.69;5037604;28;45356;-79
2021/11/04 09:34:42;;;;;;;;;4.50;3.25;;;;;10.19;71.27;99886.88;5037734;28;45317;-80
2021/11/04 09:37:11;;;;;;;;;3.50;3.00;;;;;10.26;71.46;99897.09;5037675;28;45194;-81
2021/11/04 09:39:36;;;;;;;;;2.75;2.75;;;;;10.30;71.76;99893.28;5019324;28;47555;-81
2021/11/04 09:42:03;;;;;;;;;7.75;4.00;;;;;10.28;71.67;99889.88;5037330;28;45242;-80
2021/11/04 09:44:30;;;;;;;;;9.50;8.50;;;;;10.34;71.33;99902.78;5037410;28;45259;-78
2021/11/04 09:46:55;;;;;;;;;5.00;4.25;;;;;10.44;71.92;99903.91;5019655;28;45199;-81
2021/11/04 09:49:21;;;;;;;;;3.00;3.00;;;;;10.51;71.81;99901.69;5037226;28;45558;-81
2021/11/04 09:51:47;;;;;;;;;4.00;2.75;;;;;10.59;71.65;99893.19;5037268;28;45317;-79
2021/11/04 09:54:12;;;;;;;;;5.00;5.00;;;;;10.70;71.01;99904.84;5037307;28;45235;-78
2021/11/04 09:56:38;;;;;;;;;7.25;5.00;;;;;10.80;71.02;99899.78;5037025;28;45277;-79
2021/11/04 09:59:04;;;;;;;;;3.00;3.00;;;;;10.91;71.20;99895.53;5036624;28;46235;-78
2021/11/04 10:01:32;;;;;;;;;4.00;3.00;;;;;11.06;70.61;99891.84;5037413;28;45282;-79
2021/11/04 10:04:00;;;;;;;;;4.00;4.00;;;;;11.29;70.29;99900.91;5037018;28;45251;-78
2021/11/04 10:06:29;;;;;;;;;4.00;4.00;;;;;11.39;70.12;99901.97;5037055;28;45203;-78
2021/11/04 10:09:00;;;;;;;;;4.00;3.50;;;;;11.60;70.32;99906.78;5036814;28;45344;-78
2021/11/04 10:11:30;;;;;;;;;5.00;2.00;;;;;11.72;69.84;99899.72;5036794;28;45214;-78
2021/11/04 10:14:02;;;;;;;;;3.00;3.00;;;;;11.92;69.34;99904.47;5036716;28;45314;-78
2021/11/04 10:16:31;;;;;;;;;10.00;10.00;;;;;12.02;68.66;99917.19;5036812;28;45262;-78
2021/11/04 10:19:00;;;;;;;;;3.25;3.00;;;;;12.07;68.75;99909.69;5019043;28;47559;-79
2021/11/04 10:21:27;;;;;;;;;2.50;2.50;;;;;12.12;67.96;99915.56;5037171;28;45530;-79
2021/11/04 10:23:54;;;;;;;;;3.75;2.00;;;;;12.09;68.44;99913.97;5037122;28;45289;-79
2021/11/04 10:26:25;;;;;;;;;4.00;3.00;;;;;12.13;68.12;99924.41;5037090;28;45302;-78
2021/11/04 10:28:58;;;;;;;;;3.00;3.00;;;;;12.09;67.54;99921.13;5036815;28;45179;-79
2021/11/04 10:31:24;;;;;;;;;3.00;3.00;;;;;12.05;67.62;99916.97;5037044;28;45203;-79
2021/11/04 10:33:51;;;;;;;;;3.25;2.00;;;;;12.06;67.07;99916.84;5036632;28;45290;-79
2021/11/04 10:36:21;;;;;;;;;2.00;2.00;;;;;12.18;67.08;99925.78;5036719;28;45156;-79
2021/11/04 10:38:55;;;;;;;;;5.50;2.00;;;;;12.33;66.62;99928.31;5036540;28;45168;-78
2021/11/04 10:41:28;;;;;;;;;3.75;2.50;;;;;12.46;66.49;99929.13;5037015;28;45280;-80
2021/11/04 10:43:58;;;;;;;;;1.25;1.00;;;;;12.58;66.02;99930.88;5036713;28;45215;-79
2021/11/04 10:46:24;;;;;;;;;2.00;1.50;;;;;12.66;65.81;99934.81;5036998;28;45089;-80
2021/11/04 10:49:10;;;;;;;;;2.25;1.00;;;;;12.75;66.09;99929.63;5036430;28;45961;-79
2021/11/04 10:51:36;;;;;;;;;2.00;2.00;;;;;12.81;65.23;99936.31;5036299;28;45191;-79
2021/11/04 10:54:05;;;;;;;;;2.50;2.00;;;;;12.77;65.08;99933.03;5036920;28;45238;-79
2021/11/04 10:56:34;;;;;;;;;2.50;1.00;;;;;12.75;65.50;99937.66;5036683;28;45246;-79
2021/11/04 10:59:18;;;;;;;;;3.00;2.00;;;;;12.72;65.31;99937.00;5036881;28;45218;-79
2021/11/04 11:01:46;;;;;;;;;2.50;2.50;;;;;12.60;65.47;99936.94;5036448;28;46003;-79
2021/11/04 11:04:17;;;;;;;;;3.00;2.50;;;;;12.51;64.52;99942.09;5036228;28;45194;-79
2021/11/04 11:06:46;;;;;;;;;2.75;1.25;;;;;12.46;65.38;99947.78;5036795;28;45211;-78
2021/11/04 11:09:17;;;;;;;;;1.25;1.25;;;;;12.41;64.93;99961.44;5036001;28;46197;-79
2021/11/04 11:11:45;;;;;;;;;3.00;2.00;;;;;12.35;65.06;99953.88;5036073;28;45567;-79
2021/11/04 11:14:11;;;;;;;;;1.75;1.75;;;;;12.27;65.23;99950.94;5035377;28;45275;-79
2021/11/04 11:16:42;;;;;;;;;2.00;2.00;;;;;12.23;65.53;99962.78;5036353;28;45141;-79
2021/11/04 11:19:09;;;;;;;;;2.00;1.25;;;;;12.21;65.72;99960.22;5036105;28;46053;-79
2021/11/04 11:21:40;;;;;;;;;2.00;2.00;;;;;12.15;65.32;99954.47;5036510;28;45556;-79
2021/11/04 11:24:05;;;;;;;;;2.00;2.00;;;;;12.07;65.42;99961.19;5036535;28;45201;-80
2021/11/04 11:26:31;;;;;;;;;3.00;1.75;;;;;11.99;65.59;99962.72;5036337;28;45225;-79
2021/11/04 11:28:59;;;;;;;;;4.50;2.00;;;;;11.91;66.09;99964.06;5036330;28;46033;-79
2021/11/04 11:31:27;;;;;;;;;0.75;0.75;;;;;11.91;65.94;99969.41;5036480;28;45279;-79